Ana Sayfa
METAR-TAF:

METAR-TAF

Havaalanları :

Baia Mare, Romanya

Enlem: 47-40N, Boylam: 023-35E, yükseklik: 218 m

Güncel hava durumu gözlemi

Rapor saat 12:00 UTC de 18 dakika önce yapıldı.
Rüzgar güneybatıdan 5 kt, güney ve batı arasında değişken
Sıcaklık 32°C
Nem 36%
Basınç 1024 hPa
Görüş mesafesi 10 km veya daha fazla
4300 ft yükseklikte az bulutlu

METAR: LRBM 261200Z 22005KT 190V270 9999 FEW043 32/15 Q1024

Saat: 15:18 (12:18 UTC)

Tahmin

Rapor saat 11:00 UTC de 1 saat ve 18 dakika önce yapıldı.
Ayın 26'si saat 12 UTC'den ayın 26'si saat 21 UTC'ye kadar geçerli Tahmin
Rüzgar değişken yönden 4 kt
Görüş mesafesi 10 km veya daha fazla
4000 ft yükseklikte az bulutlu

TAF: LRBM 261100Z 2612/2621 VRB04KT 9999 FEW040

4.000'den fazla havaalanı için hava durumu gözlemleri ve tahminleri (METAR ve TAF raporları).

Kullanılabilir istasyonlar harita üzerinde sarı ve kırmızı noktalarla gösterilir.

İstasyonun adını görmek için fareyi noktanın üzerinde gezdirin.

Sonrasında hava gözlem ve tahminlerini görmek için tıklayın.

Haritayı değiştirmek için: yaklaştırmak için siyah artı işaretli yeşil düğmeye ve uzaklaştırmak için de eksi işaretli düğmeye hızla tıklayın; bitişik haritalar için yeşil okları kullanın.


METAR-TAF: